sensor_id;sensor_type;location;lat;lon;timestamp;P1;durP1;ratioP1;P2;durP2;ratioP2
7231;SDS011;3657;49.630;11.018;2023-12-20T00:00:09;32.13;;;30.33;;
7231;SDS011;3657;49.630;11.018;2023-12-20T00:02:36;29.33;;;27.83;;
7231;SDS011;3657;49.630;11.018;2023-12-20T00:05:03;27.33;;;25.93;;
7231;SDS011;3657;49.630;11.018;2023-12-20T00:07:30;28.40;;;27.00;;
7231;SDS011;3657;49.630;11.018;2023-12-20T00:09:57;33.03;;;31.20;;
7231;SDS011;3657;49.630;11.018;2023-12-20T00:12:25;26.73;;;25.43;;
7231;SDS011;3657;49.630;11.018;2023-12-20T00:14:51;26.87;;;25.63;;
7231;SDS011;3657;49.630;11.018;2023-12-20T00:17:18;31.87;;;29.93;;
7231;SDS011;3657;49.630;11.018;2023-12-20T00:19:45;26.43;;;25.17;;
7231;SDS011;3657;49.630;11.018;2023-12-20T00:22:11;27.30;;;25.90;;
7231;SDS011;3657;49.630;11.018;2023-12-20T00:24:38;26.67;;;25.40;;
7231;SDS011;3657;49.630;11.018;2023-12-20T00:27:05;30.17;;;28.67;;
7231;SDS011;3657;49.630;11.018;2023-12-20T00:29:33;27.63;;;26.33;;
7231;SDS011;3657;49.630;11.018;2023-12-20T00:31:59;27.13;;;25.83;;
7231;SDS011;3657;49.630;11.018;2023-12-20T00:34:26;25.03;;;23.83;;
7231;SDS011;3657;49.630;11.018;2023-12-20T00:36:53;24.83;;;23.77;;
7231;SDS011;3657;49.630;11.018;2023-12-20T00:39:20;25.47;;;24.37;;
7231;SDS011;3657;49.630;11.018;2023-12-20T00:41:46;23.20;;;22.10;;
7231;SDS011;3657;49.630;11.018;2023-12-20T00:44:13;29.20;;;27.77;;
7231;SDS011;3657;49.630;11.018;2023-12-20T00:46:41;24.23;;;23.20;;
7231;SDS011;3657;49.630;11.018;2023-12-20T00:49:07;23.67;;;22.73;;
7231;SDS011;3657;49.630;11.018;2023-12-20T00:51:34;23.23;;;22.33;;
7231;SDS011;3657;49.630;11.018;2023-12-20T00:54:01;23.10;;;22.23;;
7231;SDS011;3657;49.630;11.018;2023-12-20T00:56:27;23.00;;;22.30;;
7231;SDS011;3657;49.630;11.018;2023-12-20T00:58:54;26.47;;;25.17;;
7231;SDS011;3657;49.630;11.018;2023-12-20T01:01:21;22.60;;;21.77;;
7231;SDS011;3657;49.630;11.018;2023-12-20T01:03:49;25.93;;;25.03;;
7231;SDS011;3657;49.630;11.018;2023-12-20T01:06:16;22.23;;;21.63;;
7231;SDS011;3657;49.630;11.018;2023-12-20T01:08:43;22.47;;;21.67;;
7231;SDS011;3657;49.630;11.018;2023-12-20T01:11:09;22.53;;;21.63;;
7231;SDS011;3657;49.630;11.018;2023-12-20T01:13:36;24.90;;;23.80;;
7231;SDS011;3657;49.630;11.018;2023-12-20T01:16:03;22.10;;;21.37;;
7231;SDS011;3657;49.630;11.018;2023-12-20T01:18:30;23.67;;;22.97;;
7231;SDS011;3657;49.630;11.018;2023-12-20T01:21:02;21.77;;;21.17;;
7231;SDS011;3657;49.630;11.018;2023-12-20T01:23:29;20.97;;;20.23;;
7231;SDS011;3657;49.630;11.018;2023-12-20T01:25:55;22.17;;;21.43;;
7231;SDS011;3657;49.630;11.018;2023-12-20T01:28:24;21.07;;;20.47;;
7231;SDS011;3657;49.630;11.018;2023-12-20T01:30:51;20.93;;;20.23;;
7231;SDS011;3657;49.630;11.018;2023-12-20T01:33:17;19.73;;;19.13;;
7231;SDS011;3657;49.630;11.018;2023-12-20T01:35:44;20.00;;;19.30;;
7231;SDS011;3657;49.630;11.018;2023-12-20T01:38:12;21.63;;;21.13;;
7231;SDS011;3657;49.630;11.018;2023-12-20T01:40:39;20.90;;;20.20;;
7231;SDS011;3657;49.630;11.018;2023-12-20T01:43:06;19.77;;;19.17;;
7231;SDS011;3657;49.630;11.018;2023-12-20T01:45:34;21.87;;;21.17;;
7231;SDS011;3657;49.630;11.018;2023-12-20T01:48:01;19.87;;;19.40;;
7231;SDS011;3657;49.630;11.018;2023-12-20T01:50:29;22.70;;;22.07;;
7231;SDS011;3657;49.630;11.018;2023-12-20T01:52:58;21.87;;;21.27;;
7231;SDS011;3657;49.630;11.018;2023-12-20T01:55:29;19.20;;;18.70;;
7231;SDS011;3657;49.630;11.018;2023-12-20T01:57:58;19.63;;;19.23;;
7231;SDS011;3657;49.630;11.018;2023-12-20T02:00:26;19.93;;;19.33;;
7231;SDS011;3657;49.630;11.018;2023-12-20T02:02:54;19.13;;;18.63;;
7231;SDS011;3657;49.630;11.018;2023-12-20T02:05:21;19.37;;;18.87;;
7231;SDS011;3657;49.630;11.018;2023-12-20T02:07:50;19.30;;;18.90;;
7231;SDS011;3657;49.630;11.018;2023-12-20T02:10:17;19.40;;;19.00;;
7231;SDS011;3657;49.630;11.018;2023-12-20T02:12:45;19.67;;;19.17;;
7231;SDS011;3657;49.630;11.018;2023-12-20T02:15:12;19.83;;;19.33;;
7231;SDS011;3657;49.630;11.018;2023-12-20T02:17:38;18.60;;;18.20;;
7231;SDS011;3657;49.630;11.018;2023-12-20T02:20:06;19.23;;;18.83;;
7231;SDS011;3657;49.630;11.018;2023-12-20T02:22:34;18.87;;;18.47;;
7231;SDS011;3657;49.630;11.018;2023-12-20T02:25:01;19.17;;;18.77;;
7231;SDS011;3657;49.630;11.018;2023-12-20T02:27:28;18.80;;;18.37;;
7231;SDS011;3657;49.630;11.018;2023-12-20T02:29:55;18.43;;;18.03;;
7231;SDS011;3657;49.630;11.018;2023-12-20T02:32:22;18.10;;;17.70;;
7231;SDS011;3657;49.630;11.018;2023-12-20T02:34:51;18.80;;;18.40;;
7231;SDS011;3657;49.630;11.018;2023-12-20T02:37:18;17.90;;;17.50;;
7231;SDS011;3657;49.630;11.018;2023-12-20T02:39:46;18.10;;;17.70;;
7231;SDS011;3657;49.630;11.018;2023-12-20T02:42:12;17.93;;;17.43;;
7231;SDS011;3657;49.630;11.018;2023-12-20T02:44:39;17.77;;;17.47;;
7231;SDS011;3657;49.630;11.018;2023-12-20T02:47:06;17.27;;;16.97;;
7231;SDS011;3657;49.630;11.018;2023-12-20T02:49:32;17.93;;;17.63;;
7231;SDS011;3657;49.630;11.018;2023-12-20T02:51:59;16.97;;;16.67;;
7231;SDS011;3657;49.630;11.018;2023-12-20T02:54:26;17.03;;;16.73;;
7231;SDS011;3657;49.630;11.018;2023-12-20T02:56:54;16.93;;;16.63;;
7231;SDS011;3657;49.630;11.018;2023-12-20T02:59:20;17.03;;;16.73;;
7231;SDS011;3657;49.630;11.018;2023-12-20T03:01:47;18.57;;;18.27;;
7231;SDS011;3657;49.630;11.018;2023-12-20T03:04:14;17.40;;;17.10;;
7231;SDS011;3657;49.630;11.018;2023-12-20T03:06:40;16.30;;;16.00;;
7231;SDS011;3657;49.630;11.018;2023-12-20T03:09:07;16.93;;;16.63;;
7231;SDS011;3657;49.630;11.018;2023-12-20T03:11:34;16.87;;;16.57;;
7231;SDS011;3657;49.630;11.018;2023-12-20T03:14:02;17.50;;;17.10;;
7231;SDS011;3657;49.630;11.018;2023-12-20T03:16:29;18.87;;;17.93;;
7231;SDS011;3657;49.630;11.018;2023-12-20T03:18:58;16.73;;;16.43;;
7231;SDS011;3657;49.630;11.018;2023-12-20T03:21:24;18.00;;;17.70;;
7231;SDS011;3657;49.630;11.018;2023-12-20T03:23:51;18.00;;;17.70;;
7231;SDS011;3657;49.630;11.018;2023-12-20T03:26:18;17.87;;;17.47;;
7231;SDS011;3657;49.630;11.018;2023-12-20T03:28:44;17.87;;;17.57;;
7231;SDS011;3657;49.630;11.018;2023-12-20T03:31:12;18.70;;;18.40;;
7231;SDS011;3657;49.630;11.018;2023-12-20T03:33:39;20.83;;;20.33;;
7231;SDS011;3657;49.630;11.018;2023-12-20T03:36:06;18.60;;;18.20;;
7231;SDS011;3657;49.630;11.018;2023-12-20T03:38:33;17.67;;;17.37;;
7231;SDS011;3657;49.630;11.018;2023-12-20T03:40:59;17.97;;;17.57;;
7231;SDS011;3657;49.630;11.018;2023-12-20T03:43:26;16.87;;;16.57;;
7231;SDS011;3657;49.630;11.018;2023-12-20T03:45:53;17.60;;;17.30;;
7231;SDS011;3657;49.630;11.018;2023-12-20T03:48:21;17.37;;;17.07;;
7231;SDS011;3657;49.630;11.018;2023-12-20T03:50:47;17.43;;;16.93;;
7231;SDS011;3657;49.630;11.018;2023-12-20T03:53:14;17.17;;;16.87;;
7231;SDS011;3657;49.630;11.018;2023-12-20T03:55:40;16.70;;;16.40;;
7231;SDS011;3657;49.630;11.018;2023-12-20T03:58:07;16.20;;;15.90;;
7231;SDS011;3657;49.630;11.018;2023-12-20T04:00:34;16.73;;;16.43;;
7231;SDS011;3657;49.630;11.018;2023-12-20T04:03:00;16.63;;;16.33;;
7231;SDS011;3657;49.630;11.018;2023-12-20T04:05:28;18.47;;;18.17;;
7231;SDS011;3657;49.630;11.018;2023-12-20T04:07:55;18.07;;;17.77;;
7231;SDS011;3657;49.630;11.018;2023-12-20T04:10:22;16.97;;;16.67;;
7231;SDS011;3657;49.630;11.018;2023-12-20T04:12:48;16.60;;;16.30;;
7231;SDS011;3657;49.630;11.018;2023-12-20T04:15:15;16.90;;;16.60;;
7231;SDS011;3657;49.630;11.018;2023-12-20T04:17:42;16.33;;;16.03;;
7231;SDS011;3657;49.630;11.018;2023-12-20T04:20:09;17.60;;;17.30;;
7231;SDS011;3657;49.630;11.018;2023-12-20T04:22:37;18.47;;;18.17;;
7231;SDS011;3657;49.630;11.018;2023-12-20T04:25:04;17.63;;;17.33;;
7231;SDS011;3657;49.630;11.018;2023-12-20T04:27:31;16.87;;;16.57;;
7231;SDS011;3657;49.630;11.018;2023-12-20T04:29:58;15.80;;;15.57;;
7231;SDS011;3657;49.630;11.018;2023-12-20T04:32:24;17.30;;;17.00;;
7231;SDS011;3657;49.630;11.018;2023-12-20T04:34:51;17.07;;;16.57;;
7231;SDS011;3657;49.630;11.018;2023-12-20T04:37:17;17.87;;;17.57;;
7231;SDS011;3657;49.630;11.018;2023-12-20T04:39:45;17.07;;;16.77;;
7231;SDS011;3657;49.630;11.018;2023-12-20T04:42:11;17.20;;;16.90;;
7231;SDS011;3657;49.630;11.018;2023-12-20T04:44:38;17.60;;;17.30;;
7231;SDS011;3657;49.630;11.018;2023-12-20T04:47:05;16.90;;;16.60;;
7231;SDS011;3657;49.630;11.018;2023-12-20T04:49:31;18.87;;;18.57;;
7231;SDS011;3657;49.630;11.018;2023-12-20T04:51:58;18.93;;;18.63;;
7231;SDS011;3657;49.630;11.018;2023-12-20T04:54:25;16.47;;;16.17;;
7231;SDS011;3657;49.630;11.018;2023-12-20T04:56:53;17.23;;;16.93;;
7231;SDS011;3657;49.630;11.018;2023-12-20T04:59:19;17.40;;;17.10;;
7231;SDS011;3657;49.630;11.018;2023-12-20T05:01:46;18.37;;;18.07;;
7231;SDS011;3657;49.630;11.018;2023-12-20T05:04:13;19.03;;;18.67;;
7231;SDS011;3657;49.630;11.018;2023-12-20T05:06:40;18.97;;;18.67;;
7231;SDS011;3657;49.630;11.018;2023-12-20T05:09:07;18.60;;;18.30;;
7231;SDS011;3657;49.630;11.018;2023-12-20T05:11:34;18.53;;;18.23;;
7231;SDS011;3657;49.630;11.018;2023-12-20T05:14:02;18.97;;;18.67;;
7231;SDS011;3657;49.630;11.018;2023-12-20T05:16:28;15.83;;;15.53;;
7231;SDS011;3657;49.630;11.018;2023-12-20T05:18:55;16.60;;;16.30;;
7231;SDS011;3657;49.630;11.018;2023-12-20T05:21:22;17.03;;;16.73;;
7231;SDS011;3657;49.630;11.018;2023-12-20T05:23:48;21.20;;;20.80;;
7231;SDS011;3657;49.630;11.018;2023-12-20T05:26:15;19.07;;;18.77;;
7231;SDS011;3657;49.630;11.018;2023-12-20T05:28:42;18.67;;;18.37;;
7231;SDS011;3657;49.630;11.018;2023-12-20T05:31:10;20.03;;;19.63;;
7231;SDS011;3657;49.630;11.018;2023-12-20T05:33:36;19.73;;;19.37;;
7231;SDS011;3657;49.630;11.018;2023-12-20T05:36:03;18.70;;;18.40;;
7231;SDS011;3657;49.630;11.018;2023-12-20T05:38:30;18.53;;;18.20;;
7231;SDS011;3657;49.630;11.018;2023-12-20T05:40:57;19.80;;;19.50;;
7231;SDS011;3657;49.630;11.018;2023-12-20T05:43:24;19.97;;;19.67;;
7231;SDS011;3657;49.630;11.018;2023-12-20T05:45:50;20.27;;;19.97;;
7231;SDS011;3657;49.630;11.018;2023-12-20T05:48:18;18.10;;;17.70;;
7231;SDS011;3657;49.630;11.018;2023-12-20T05:50:45;19.60;;;19.10;;
7231;SDS011;3657;49.630;11.018;2023-12-20T05:53:12;18.67;;;18.37;;
7231;SDS011;3657;49.630;11.018;2023-12-20T05:55:38;16.87;;;16.27;;
7231;SDS011;3657;49.630;11.018;2023-12-20T05:58:05;17.90;;;17.60;;
7231;SDS011;3657;49.630;11.018;2023-12-20T06:00:32;18.90;;;18.53;;
7231;SDS011;3657;49.630;11.018;2023-12-20T06:02:58;18.43;;;18.13;;
7231;SDS011;3657;49.630;11.018;2023-12-20T06:05:26;17.53;;;17.23;;
7231;SDS011;3657;49.630;11.018;2023-12-20T06:07:53;18.90;;;18.60;;
7231;SDS011;3657;49.630;11.018;2023-12-20T06:10:21;19.40;;;19.10;;
7231;SDS011;3657;49.630;11.018;2023-12-20T06:12:48;18.03;;;17.73;;
7231;SDS011;3657;49.630;11.018;2023-12-20T06:15:16;17.43;;;17.13;;
7231;SDS011;3657;49.630;11.018;2023-12-20T06:17:42;16.90;;;16.60;;
7231;SDS011;3657;49.630;11.018;2023-12-20T06:20:10;18.13;;;17.83;;
7231;SDS011;3657;49.630;11.018;2023-12-20T06:22:38;17.47;;;17.07;;
7231;SDS011;3657;49.630;11.018;2023-12-20T06:25:05;17.77;;;17.47;;
7231;SDS011;3657;49.630;11.018;2023-12-20T06:27:32;18.70;;;18.40;;
7231;SDS011;3657;49.630;11.018;2023-12-20T06:29:58;18.20;;;17.90;;
7231;SDS011;3657;49.630;11.018;2023-12-20T06:32:25;17.63;;;17.33;;
7231;SDS011;3657;49.630;11.018;2023-12-20T06:34:54;17.93;;;17.63;;
7231;SDS011;3657;49.630;11.018;2023-12-20T06:37:20;18.40;;;18.10;;
7231;SDS011;3657;49.630;11.018;2023-12-20T06:39:48;19.70;;;19.20;;
7231;SDS011;3657;49.630;11.018;2023-12-20T06:42:15;18.67;;;18.27;;
7231;SDS011;3657;49.630;11.018;2023-12-20T06:44:42;18.60;;;18.30;;
7231;SDS011;3657;49.630;11.018;2023-12-20T06:47:08;19.23;;;18.83;;
7231;SDS011;3657;49.630;11.018;2023-12-20T06:49:35;18.70;;;18.30;;
7231;SDS011;3657;49.630;11.018;2023-12-20T06:52:02;20.27;;;19.87;;
7231;SDS011;3657;49.630;11.018;2023-12-20T06:54:29;19.97;;;19.57;;
7231;SDS011;3657;49.630;11.018;2023-12-20T06:56:57;19.80;;;19.30;;
7231;SDS011;3657;49.630;11.018;2023-12-20T06:59:24;18.97;;;18.57;;
7231;SDS011;3657;49.630;11.018;2023-12-20T07:01:51;20.50;;;20.10;;
7231;SDS011;3657;49.630;11.018;2023-12-20T07:04:17;18.83;;;18.53;;
7231;SDS011;3657;49.630;11.018;2023-12-20T07:06:46;21.10;;;20.70;;
7231;SDS011;3657;49.630;11.018;2023-12-20T07:09:13;22.73;;;22.27;;
7231;SDS011;3657;49.630;11.018;2023-12-20T07:11:40;21.37;;;20.97;;
7231;SDS011;3657;49.630;11.018;2023-12-20T07:14:08;22.37;;;21.93;;
7231;SDS011;3657;49.630;11.018;2023-12-20T07:16:35;21.60;;;21.20;;
7231;SDS011;3657;49.630;11.018;2023-12-20T07:19:01;21.10;;;20.70;;
7231;SDS011;3657;49.630;11.018;2023-12-20T07:21:28;21.10;;;20.70;;
7231;SDS011;3657;49.630;11.018;2023-12-20T07:23:55;20.43;;;20.03;;
7231;SDS011;3657;49.630;11.018;2023-12-20T07:26:21;20.07;;;19.67;;
7231;SDS011;3657;49.630;11.018;2023-12-20T07:28:48;21.17;;;20.73;;
7231;SDS011;3657;49.630;11.018;2023-12-20T07:31:16;21.93;;;21.53;;
7231;SDS011;3657;49.630;11.018;2023-12-20T07:33:43;22.57;;;21.97;;
7231;SDS011;3657;49.630;11.018;2023-12-20T07:36:09;19.80;;;19.37;;
7231;SDS011;3657;49.630;11.018;2023-12-20T07:38:36;22.07;;;21.57;;
7231;SDS011;3657;49.630;11.018;2023-12-20T07:41:03;21.90;;;21.40;;
7231;SDS011;3657;49.630;11.018;2023-12-20T07:43:30;20.73;;;20.23;;
7231;SDS011;3657;49.630;11.018;2023-12-20T07:45:56;21.33;;;20.93;;
7231;SDS011;3657;49.630;11.018;2023-12-20T07:48:24;20.47;;;19.97;;
7231;SDS011;3657;49.630;11.018;2023-12-20T07:50:51;22.80;;;22.30;;
7231;SDS011;3657;49.630;11.018;2023-12-20T07:53:19;20.87;;;20.47;;
7231;SDS011;3657;49.630;11.018;2023-12-20T07:55:45;22.93;;;22.43;;
7231;SDS011;3657;49.630;11.018;2023-12-20T07:58:12;24.07;;;23.57;;
7231;SDS011;3657;49.630;11.018;2023-12-20T08:00:38;22.80;;;22.30;;
7231;SDS011;3657;49.630;11.018;2023-12-20T08:03:05;23.27;;;22.77;;
7231;SDS011;3657;49.630;11.018;2023-12-20T08:05:33;22.30;;;21.80;;
7231;SDS011;3657;49.630;11.018;2023-12-20T08:08:00;24.53;;;24.03;;
7231;SDS011;3657;49.630;11.018;2023-12-20T08:10:26;23.17;;;22.63;;
7231;SDS011;3657;49.630;11.018;2023-12-20T08:12:54;22.63;;;22.20;;
7231;SDS011;3657;49.630;11.018;2023-12-20T08:15:21;22.10;;;21.50;;
7231;SDS011;3657;49.630;11.018;2023-12-20T08:17:48;20.97;;;20.57;;
7231;SDS011;3657;49.630;11.018;2023-12-20T08:20:15;22.43;;;22.03;;
7231;SDS011;3657;49.630;11.018;2023-12-20T08:22:44;23.63;;;23.23;;
7231;SDS011;3657;49.630;11.018;2023-12-20T08:25:10;23.13;;;22.63;;
7231;SDS011;3657;49.630;11.018;2023-12-20T08:27:39;20.77;;;20.27;;
7231;SDS011;3657;49.630;11.018;2023-12-20T08:30:06;20.70;;;20.23;;
7231;SDS011;3657;49.630;11.018;2023-12-20T08:32:35;20.57;;;20.17;;
7231;SDS011;3657;49.630;11.018;2023-12-20T08:35:01;20.33;;;19.93;;
7231;SDS011;3657;49.630;11.018;2023-12-20T08:37:28;19.97;;;19.57;;
7231;SDS011;3657;49.630;11.018;2023-12-20T08:39:57;20.00;;;19.60;;
7231;SDS011;3657;49.630;11.018;2023-12-20T08:42:23;19.70;;;19.30;;
7231;SDS011;3657;49.630;11.018;2023-12-20T08:44:55;21.53;;;21.13;;
7231;SDS011;3657;49.630;11.018;2023-12-20T08:47:22;21.43;;;21.03;;
7231;SDS011;3657;49.630;11.018;2023-12-20T08:49:49;21.87;;;21.47;;
7231;SDS011;3657;49.630;11.018;2023-12-20T08:52:16;23.13;;;22.63;;
7231;SDS011;3657;49.630;11.018;2023-12-20T08:54:42;22.67;;;22.23;;
7231;SDS011;3657;49.630;11.018;2023-12-20T08:57:10;19.60;;;19.20;;
7231;SDS011;3657;49.630;11.018;2023-12-20T08:59:37;21.90;;;21.40;;
7231;SDS011;3657;49.630;11.018;2023-12-20T09:02:04;22.10;;;21.60;;
7231;SDS011;3657;49.630;11.018;2023-12-20T09:04:31;18.77;;;18.37;;
7231;SDS011;3657;49.630;11.018;2023-12-20T09:06:59;19.83;;;19.43;;
7231;SDS011;3657;49.630;11.018;2023-12-20T09:09:26;20.70;;;20.20;;
7231;SDS011;3657;49.630;11.018;2023-12-20T09:11:52;21.13;;;20.73;;
7231;SDS011;3657;49.630;11.018;2023-12-20T09:14:20;19.87;;;19.47;;
7231;SDS011;3657;49.630;11.018;2023-12-20T09:16:47;20.00;;;19.60;;
7231;SDS011;3657;49.630;11.018;2023-12-20T09:19:16;21.87;;;21.37;;
7231;SDS011;3657;49.630;11.018;2023-12-20T09:21:42;20.10;;;19.70;;
7231;SDS011;3657;49.630;11.018;2023-12-20T09:24:09;21.33;;;20.77;;
7231;SDS011;3657;49.630;11.018;2023-12-20T09:26:36;22.07;;;21.57;;
7231;SDS011;3657;49.630;11.018;2023-12-20T09:29:04;20.13;;;19.73;;
7231;SDS011;3657;49.630;11.018;2023-12-20T09:31:34;20.60;;;19.90;;
7231;SDS011;3657;49.630;11.018;2023-12-20T09:34:02;18.53;;;18.13;;
7231;SDS011;3657;49.630;11.018;2023-12-20T09:36:29;18.63;;;18.00;;
7231;SDS011;3657;49.630;11.018;2023-12-20T09:38:59;18.57;;;18.17;;
7231;SDS011;3657;49.630;11.018;2023-12-20T09:41:26;17.60;;;16.87;;
7231;SDS011;3657;49.630;11.018;2023-12-20T09:43:54;29.23;;;18.20;;
7231;SDS011;3657;49.630;11.018;2023-12-20T09:46:24;29.73;;;18.30;;
7231;SDS011;3657;49.630;11.018;2023-12-20T09:48:56;26.03;;;19.50;;
7231;SDS011;3657;49.630;11.018;2023-12-20T09:51:24;20.03;;;18.30;;
7231;SDS011;3657;49.630;11.018;2023-12-20T09:53:52;20.97;;;19.63;;
7231;SDS011;3657;49.630;11.018;2023-12-20T09:56:22;20.10;;;18.50;;
7231;SDS011;3657;49.630;11.018;2023-12-20T09:58:50;19.47;;;18.77;;
7231;SDS011;3657;49.630;11.018;2023-12-20T10:01:19;19.23;;;18.63;;
7231;SDS011;3657;49.630;11.018;2023-12-20T10:03:46;20.73;;;19.70;;
7231;SDS011;3657;49.630;11.018;2023-12-20T10:06:14;18.70;;;18.00;;
7231;SDS011;3657;49.630;11.018;2023-12-20T10:08:41;20.03;;;19.33;;
7231;SDS011;3657;49.630;11.018;2023-12-20T10:11:08;20.60;;;19.63;;
7231;SDS011;3657;49.630;11.018;2023-12-20T10:13:38;20.20;;;19.50;;
7231;SDS011;3657;49.630;11.018;2023-12-20T10:16:05;20.47;;;19.50;;
7231;SDS011;3657;49.630;11.018;2023-12-20T10:18:32;19.70;;;19.03;;
7231;SDS011;3657;49.630;11.018;2023-12-20T10:20:59;17.97;;;17.57;;
7231;SDS011;3657;49.630;11.018;2023-12-20T10:23:27;20.17;;;19.57;;
7231;SDS011;3657;49.630;11.018;2023-12-20T10:25:56;20.50;;;19.90;;
7231;SDS011;3657;49.630;11.018;2023-12-20T10:28:23;18.33;;;17.80;;
7231;SDS011;3657;49.630;11.018;2023-12-20T10:30:52;18.83;;;18.23;;
7231;SDS011;3657;49.630;11.018;2023-12-20T10:33:23;19.97;;;19.27;;
7231;SDS011;3657;49.630;11.018;2023-12-20T10:35:51;18.97;;;18.37;;
7231;SDS011;3657;49.630;11.018;2023-12-20T10:38:18;19.00;;;18.50;;
7231;SDS011;3657;49.630;11.018;2023-12-20T10:40:46;18.37;;;17.87;;
7231;SDS011;3657;49.630;11.018;2023-12-20T10:43:13;21.20;;;20.30;;
7231;SDS011;3657;49.630;11.018;2023-12-20T10:45:41;19.07;;;18.57;;
7231;SDS011;3657;49.630;11.018;2023-12-20T10:48:09;18.47;;;17.97;;
7231;SDS011;3657;49.630;11.018;2023-12-20T10:50:37;19.20;;;18.50;;
7231;SDS011;3657;49.630;11.018;2023-12-20T10:53:05;18.47;;;17.97;;
7231;SDS011;3657;49.630;11.018;2023-12-20T10:55:33;19.03;;;18.43;;
7231;SDS011;3657;49.630;11.018;2023-12-20T10:58:02;18.60;;;18.10;;
7231;SDS011;3657;49.630;11.018;2023-12-20T11:00:34;19.13;;;18.70;;
7231;SDS011;3657;49.630;11.018;2023-12-20T11:03:04;20.03;;;19.43;;
7231;SDS011;3657;49.630;11.018;2023-12-20T11:05:36;18.20;;;17.67;;
7231;SDS011;3657;49.630;11.018;2023-12-20T11:08:09;19.40;;;18.60;;
7231;SDS011;3657;49.630;11.018;2023-12-20T11:10:42;18.77;;;18.27;;
7231;SDS011;3657;49.630;11.018;2023-12-20T11:13:17;19.60;;;19.00;;
7231;SDS011;3657;49.630;11.018;2023-12-20T11:15:48;19.53;;;18.70;;
7231;SDS011;3657;49.630;11.018;2023-12-20T11:18:15;19.43;;;18.67;;
7231;SDS011;3657;49.630;11.018;2023-12-20T11:20:42;20.13;;;19.17;;
7231;SDS011;3657;49.630;11.018;2023-12-20T11:23:09;19.13;;;18.53;;
7231;SDS011;3657;49.630;11.018;2023-12-20T11:25:46;19.43;;;18.60;;
7231;SDS011;3657;49.630;11.018;2023-12-20T11:28:13;19.33;;;18.33;;
7231;SDS011;3657;49.630;11.018;2023-12-20T11:30:42;19.13;;;18.63;;
7231;SDS011;3657;49.630;11.018;2023-12-20T11:33:12;19.43;;;18.73;;
7231;SDS011;3657;49.630;11.018;2023-12-20T11:35:39;17.27;;;16.83;;
7231;SDS011;3657;49.630;11.018;2023-12-20T11:38:07;18.83;;;18.40;;
7231;SDS011;3657;49.630;11.018;2023-12-20T11:40:35;19.53;;;18.73;;
7231;SDS011;3657;49.630;11.018;2023-12-20T11:43:02;17.77;;;17.33;;
7231;SDS011;3657;49.630;11.018;2023-12-20T11:45:29;19.73;;;19.23;;
7231;SDS011;3657;49.630;11.018;2023-12-20T11:47:58;19.20;;;18.40;;
7231;SDS011;3657;49.630;11.018;2023-12-20T11:50:25;18.33;;;17.93;;
7231;SDS011;3657;49.630;11.018;2023-12-20T11:52:53;19.73;;;19.13;;
7231;SDS011;3657;49.630;11.018;2023-12-20T11:55:20;19.70;;;18.87;;
7231;SDS011;3657;49.630;11.018;2023-12-20T11:57:47;19.87;;;19.27;;
7231;SDS011;3657;49.630;11.018;2023-12-20T12:00:14;18.77;;;18.17;;
7231;SDS011;3657;49.630;11.018;2023-12-20T12:02:41;18.90;;;18.40;;
7231;SDS011;3657;49.630;11.018;2023-12-20T12:05:09;17.77;;;17.27;;
7231;SDS011;3657;49.630;11.018;2023-12-20T12:07:36;18.70;;;18.00;;
7231;SDS011;3657;49.630;11.018;2023-12-20T12:10:03;20.13;;;19.37;;
7231;SDS011;3657;49.630;11.018;2023-12-20T12:12:30;18.97;;;18.37;;
7231;SDS011;3657;49.630;11.018;2023-12-20T12:14:57;19.47;;;18.77;;
7231;SDS011;3657;49.630;11.018;2023-12-20T12:17:24;18.03;;;17.43;;
7231;SDS011;3657;49.630;11.018;2023-12-20T12:19:52;19.00;;;18.23;;
7231;SDS011;3657;49.630;11.018;2023-12-20T12:22:30;19.20;;;18.30;;
7231;SDS011;3657;49.630;11.018;2023-12-20T12:24:58;18.83;;;18.30;;
7231;SDS011;3657;49.630;11.018;2023-12-20T12:27:26;19.10;;;18.60;;
7231;SDS011;3657;49.630;11.018;2023-12-20T12:30:00;19.50;;;18.90;;
7231;SDS011;3657;49.630;11.018;2023-12-20T12:32:27;19.70;;;18.93;;
7231;SDS011;3657;49.630;11.018;2023-12-20T12:34:54;20.17;;;19.23;;
7231;SDS011;3657;49.630;11.018;2023-12-20T12:37:22;18.73;;;18.17;;
7231;SDS011;3657;49.630;11.018;2023-12-20T12:39:52;19.47;;;18.87;;
7231;SDS011;3657;49.630;11.018;2023-12-20T12:42:19;18.97;;;18.27;;
7231;SDS011;3657;49.630;11.018;2023-12-20T12:44:46;19.10;;;18.53;;
7231;SDS011;3657;49.630;11.018;2023-12-20T12:47:13;19.60;;;18.90;;
7231;SDS011;3657;49.630;11.018;2023-12-20T12:49:40;19.80;;;19.10;;
7231;SDS011;3657;49.630;11.018;2023-12-20T12:52:07;20.43;;;19.53;;
7231;SDS011;3657;49.630;11.018;2023-12-20T12:54:33;19.40;;;18.70;;
7231;SDS011;3657;49.630;11.018;2023-12-20T12:57:03;18.90;;;18.10;;
7231;SDS011;3657;49.630;11.018;2023-12-20T12:59:30;19.27;;;18.77;;
7231;SDS011;3657;49.630;11.018;2023-12-20T13:01:56;19.77;;;18.90;;
7231;SDS011;3657;49.630;11.018;2023-12-20T13:04:23;19.60;;;19.00;;
7231;SDS011;3657;49.630;11.018;2023-12-20T13:06:50;19.00;;;18.40;;
7231;SDS011;3657;49.630;11.018;2023-12-20T13:09:16;18.33;;;17.83;;
7231;SDS011;3657;49.630;11.018;2023-12-20T13:11:44;18.90;;;18.20;;
7231;SDS011;3657;49.630;11.018;2023-12-20T13:14:12;20.27;;;19.17;;
7231;SDS011;3657;49.630;11.018;2023-12-20T13:16:40;18.87;;;18.20;;
7231;SDS011;3657;49.630;11.018;2023-12-20T13:19:07;19.77;;;19.00;;
7231;SDS011;3657;49.630;11.018;2023-12-20T13:21:34;20.13;;;19.20;;
7231;SDS011;3657;49.630;11.018;2023-12-20T13:24:01;20.00;;;19.33;;
7231;SDS011;3657;49.630;11.018;2023-12-20T13:26:28;18.90;;;18.30;;
7231;SDS011;3657;49.630;11.018;2023-12-20T13:28:55;20.57;;;19.87;;
7231;SDS011;3657;49.630;11.018;2023-12-20T13:31:23;19.90;;;19.13;;
7231;SDS011;3657;49.630;11.018;2023-12-20T13:33:49;21.00;;;20.40;;
7231;SDS011;3657;49.630;11.018;2023-12-20T13:36:17;19.87;;;19.17;;
7231;SDS011;3657;49.630;11.018;2023-12-20T13:38:44;21.33;;;20.40;;
7231;SDS011;3657;49.630;11.018;2023-12-20T13:41:10;20.13;;;19.27;;
7231;SDS011;3657;49.630;11.018;2023-12-20T13:43:37;19.13;;;18.43;;
7231;SDS011;3657;49.630;11.018;2023-12-20T13:46:04;19.67;;;19.17;;
7231;SDS011;3657;49.630;11.018;2023-12-20T13:48:32;17.67;;;17.27;;
7231;SDS011;3657;49.630;11.018;2023-12-20T13:50:58;19.67;;;19.07;;
7231;SDS011;3657;49.630;11.018;2023-12-20T13:53:25;19.03;;;18.33;;
7231;SDS011;3657;49.630;11.018;2023-12-20T13:55:52;20.07;;;19.50;;
7231;SDS011;3657;49.630;11.018;2023-12-20T13:58:19;18.93;;;18.27;;
7231;SDS011;3657;49.630;11.018;2023-12-20T14:00:45;18.60;;;17.90;;
7231;SDS011;3657;49.630;11.018;2023-12-20T14:03:13;19.00;;;18.37;;
7231;SDS011;3657;49.630;11.018;2023-12-20T14:05:41;19.40;;;18.70;;
7231;SDS011;3657;49.630;11.018;2023-12-20T14:08:07;19.97;;;19.10;;
7231;SDS011;3657;49.630;11.018;2023-12-20T14:10:35;19.87;;;19.03;;
7231;SDS011;3657;49.630;11.018;2023-12-20T14:13:01;18.70;;;18.20;;
7231;SDS011;3657;49.630;11.018;2023-12-20T14:15:28;19.10;;;18.50;;
7231;SDS011;3657;49.630;11.018;2023-12-20T14:17:55;20.00;;;19.40;;
7231;SDS011;3657;49.630;11.018;2023-12-20T14:20:21;19.17;;;18.47;;
7231;SDS011;3657;49.630;11.018;2023-12-20T14:22:50;18.90;;;18.07;;
7231;SDS011;3657;49.630;11.018;2023-12-20T14:25:16;18.33;;;17.80;;
7231;SDS011;3657;49.630;11.018;2023-12-20T14:27:43;20.67;;;19.83;;
7231;SDS011;3657;49.630;11.018;2023-12-20T14:30:10;19.37;;;18.77;;
7231;SDS011;3657;49.630;11.018;2023-12-20T14:32:39;19.93;;;19.33;;